Cambridge, MN (55008)

14:23 CST le 04 décembre 2016 (GMT -0600)
Maple Dell Park | | Change Station

Alt. 957 ft 45.58 °N, 93.23 °W | Updated 9 seconds ago

Overcast
Couvert
34.7 ° F
Paraît 35 ° F
N
1.8
Vent Variable Vent de Sud
Gusts 2.5 mph

Aujourd'hui
Haut(e) -- | Bas -- ° F
--% Risque de précip.
Hier
Haut(e) -- | Bas -- ° F
Precip. -- pouce
Pression 29.72 pouce
Visibilité 7.0 Miles terrestres
Nuages Nuageux 800 ft
Couvert 1400 ft
Refroidissement éolien 35 ° F
Point de rosée 31 ° F
Humidité 87%
Précipitations 0.00 pouce
Profondeur de la couche neigeuse Non disponible.
7:36 AM 4:29 PM
Lune montante, 25% visible
METAR KCBG 042016Z AUTO 16004KT 7SM BKN008 OVC014 02/01 A2972 RMK AO2 P0002
Pression 29.72 pouce
Visibilité 7.0 Miles terrestres
Nuages Nuageux 800 ft
Couvert 1400 ft
Refroidissement éolien 35 ° F
Point de rosée 31 ° F
Humidité 87%
Précipitations 0.00 pouce
Profondeur de la couche neigeuse Non disponible.
7:36 AM 4:29 PM
Lune montante, 25% visible
METAR KCBG 042016Z AUTO 16004KT 7SM BKN008 OVC014 02/01 A2972 RMK AO2 P0002

10-Day Weather Forecast

Almanac

Astronomie

Dec. 04, 2016 Lever Coucher
Temps réel
Crépuscule civil
Crépuscule nautique
Crépuscule astronomique
Lune
Durée de lumière visible
Longueur du jour
Tomorrow will be .
, % of the Moon is Illuminated

Extrêmes aujourd'hui

State Highs State Lows

Community

WunderPhotos

Upload Photos

1,955,661 Photos téléchargées !

WunderBlog® & News

Nearby

Qualité de l'air

  Qualité de l'air Indice de la qualité de l'air Polluant
Not available.

Épaisseur de neige

Station Depth Altitude

Activité sismique

Ville Distance Mag. Time & Date
Minimum magnitude displayed is 2.5.

Températures des eaux côtières

Lieu Température

Stations

Stations météo à proximité

Emplacement de la station Température Refroidissement éolien Point de rosée Humidité Vent Precip. Alt. Mise à jour Type
                   

Watches & Warnings

There are currently no watches in effect.